sensor_id;sensor_type;location;lat;lon;timestamp;P1;durP1;ratioP1;P2;durP2;ratioP2
44704;SDS011;30431;48.520;9.046;2023-01-25T00:01:05;28.42;;;18.77;;
44704;SDS011;30431;48.520;9.046;2023-01-25T00:03:32;27.60;;;18.45;;
44704;SDS011;30431;48.520;9.046;2023-01-25T00:05:59;31.67;;;19.45;;
44704;SDS011;30431;48.520;9.046;2023-01-25T00:08:29;29.77;;;19.20;;
44704;SDS011;30431;48.520;9.046;2023-01-25T00:10:56;27.92;;;18.83;;
44704;SDS011;30431;48.520;9.046;2023-01-25T00:15:53;27.23;;;18.58;;
44704;SDS011;30431;48.520;9.046;2023-01-25T00:18:27;30.63;;;19.27;;
44704;SDS011;30431;48.520;9.046;2023-01-25T00:20:54;27.92;;;18.98;;
44704;SDS011;30431;48.520;9.046;2023-01-25T00:23:23;29.05;;;18.70;;
44704;SDS011;30431;48.520;9.046;2023-01-25T00:25:57;27.15;;;18.50;;
44704;SDS011;30431;48.520;9.046;2023-01-25T00:28:24;28.20;;;19.25;;
44704;SDS011;30431;48.520;9.046;2023-01-25T00:30:57;25.83;;;18.23;;
44704;SDS011;30431;48.520;9.046;2023-01-25T00:36:25;26.92;;;17.10;;
44704;SDS011;30431;48.520;9.046;2023-01-25T00:39:05;25.33;;;17.10;;
44704;SDS011;30431;48.520;9.046;2023-01-25T00:41:37;25.90;;;17.77;;
44704;SDS011;30431;48.520;9.046;2023-01-25T00:44:04;29.08;;;18.63;;
44704;SDS011;30431;48.520;9.046;2023-01-25T00:46:31;29.92;;;19.48;;
44704;SDS011;30431;48.520;9.046;2023-01-25T00:49:04;26.27;;;18.23;;
44704;SDS011;30431;48.520;9.046;2023-01-25T00:51:33;26.45;;;18.08;;
44704;SDS011;30431;48.520;9.046;2023-01-25T00:54:01;25.13;;;17.08;;
44704;SDS011;30431;48.520;9.046;2023-01-25T00:56:28;26.50;;;17.67;;
44704;SDS011;30431;48.520;9.046;2023-01-25T00:58:57;24.83;;;17.48;;
44704;SDS011;30431;48.520;9.046;2023-01-25T01:01:24;27.55;;;18.08;;
44704;SDS011;30431;48.520;9.046;2023-01-25T01:03:51;25.98;;;17.88;;
44704;SDS011;30431;48.520;9.046;2023-01-25T01:06:21;25.50;;;17.38;;
44704;SDS011;30431;48.520;9.046;2023-01-25T01:11:15;23.63;;;16.38;;
44704;SDS011;30431;48.520;9.046;2023-01-25T01:13:42;26.95;;;17.98;;
44704;SDS011;30431;48.520;9.046;2023-01-25T01:16:09;25.63;;;16.83;;
44704;SDS011;30431;48.520;9.046;2023-01-25T01:18:41;23.50;;;17.63;;
44704;SDS011;30431;48.520;9.046;2023-01-25T01:21:10;23.85;;;17.05;;
44704;SDS011;30431;48.520;9.046;2023-01-25T01:23:38;26.65;;;18.00;;
44704;SDS011;30431;48.520;9.046;2023-01-25T01:26:07;25.67;;;17.88;;
44704;SDS011;30431;48.520;9.046;2023-01-25T01:28:37;26.65;;;17.40;;
44704;SDS011;30431;48.520;9.046;2023-01-25T01:31:15;25.30;;;17.33;;
44704;SDS011;30431;48.520;9.046;2023-01-25T01:34:12;25.33;;;16.90;;
44704;SDS011;30431;48.520;9.046;2023-01-25T01:36:40;26.10;;;16.40;;
44704;SDS011;30431;48.520;9.046;2023-01-25T01:39:08;25.38;;;17.02;;
44704;SDS011;30431;48.520;9.046;2023-01-25T01:41:38;25.50;;;17.88;;
44704;SDS011;30431;48.520;9.046;2023-01-25T01:44:50;26.05;;;17.42;;
44704;SDS011;30431;48.520;9.046;2023-01-25T01:47:17;25.00;;;16.83;;
44704;SDS011;30431;48.520;9.046;2023-01-25T01:49:52;27.98;;;17.38;;
44704;SDS011;30431;48.520;9.046;2023-01-25T01:52:26;23.98;;;16.85;;
44704;SDS011;30431;48.520;9.046;2023-01-25T02:00:07;26.20;;;16.92;;
44704;SDS011;30431;48.520;9.046;2023-01-25T02:02:40;25.00;;;16.80;;
44704;SDS011;30431;48.520;9.046;2023-01-25T02:05:15;24.08;;;17.30;;
44704;SDS011;30431;48.520;9.046;2023-01-25T02:07:47;25.38;;;16.90;;
44704;SDS011;30431;48.520;9.046;2023-01-25T02:10:20;27.35;;;17.77;;
44704;SDS011;30431;48.520;9.046;2023-01-25T02:12:51;24.92;;;17.30;;
44704;SDS011;30431;48.520;9.046;2023-01-25T02:15:21;25.35;;;16.13;;
44704;SDS011;30431;48.520;9.046;2023-01-25T02:17:51;25.67;;;16.45;;
44704;SDS011;30431;48.520;9.046;2023-01-25T02:20:27;23.23;;;16.92;;
44704;SDS011;30431;48.520;9.046;2023-01-25T02:25:36;22.35;;;15.40;;
44704;SDS011;30431;48.520;9.046;2023-01-25T02:28:14;27.10;;;16.55;;
44704;SDS011;30431;48.520;9.046;2023-01-25T02:30:47;25.13;;;16.08;;
44704;SDS011;30431;48.520;9.046;2023-01-25T02:33:17;25.33;;;16.13;;
44704;SDS011;30431;48.520;9.046;2023-01-25T02:38:17;25.25;;;16.50;;
44704;SDS011;30431;48.520;9.046;2023-01-25T02:40:53;26.05;;;16.42;;
44704;SDS011;30431;48.520;9.046;2023-01-25T02:43:30;24.88;;;16.60;;
44704;SDS011;30431;48.520;9.046;2023-01-25T02:46:13;22.90;;;16.30;;
44704;SDS011;30431;48.520;9.046;2023-01-25T02:48:48;24.65;;;16.75;;
44704;SDS011;30431;48.520;9.046;2023-01-25T02:51:19;21.33;;;15.48;;
44704;SDS011;30431;48.520;9.046;2023-01-25T02:53:48;22.98;;;15.93;;
44704;SDS011;30431;48.520;9.046;2023-01-25T02:56:15;25.70;;;15.85;;
44704;SDS011;30431;48.520;9.046;2023-01-25T02:58:43;24.38;;;16.10;;
44704;SDS011;30431;48.520;9.046;2023-01-25T03:01:13;26.88;;;16.33;;
44704;SDS011;30431;48.520;9.046;2023-01-25T03:03:41;24.17;;;15.57;;
44704;SDS011;30431;48.520;9.046;2023-01-25T03:06:08;22.58;;;16.15;;
44704;SDS011;30431;48.520;9.046;2023-01-25T03:11:07;22.67;;;15.48;;
44704;SDS011;30431;48.520;9.046;2023-01-25T03:13:37;23.02;;;16.05;;
44704;SDS011;30431;48.520;9.046;2023-01-25T03:16:07;24.05;;;15.90;;
44704;SDS011;30431;48.520;9.046;2023-01-25T03:18:43;23.00;;;15.40;;
44704;SDS011;30431;48.520;9.046;2023-01-25T03:21:17;23.30;;;16.05;;
44704;SDS011;30431;48.520;9.046;2023-01-25T03:23:53;24.08;;;16.45;;
44704;SDS011;30431;48.520;9.046;2023-01-25T03:26:32;24.83;;;15.95;;
44704;SDS011;30431;48.520;9.046;2023-01-25T03:29:23;24.17;;;15.75;;
44704;SDS011;30431;48.520;9.046;2023-01-25T03:31:52;27.02;;;16.02;;
44704;SDS011;30431;48.520;9.046;2023-01-25T03:34:19;22.58;;;16.15;;
44704;SDS011;30431;48.520;9.046;2023-01-25T03:36:46;22.65;;;15.85;;
44704;SDS011;30431;48.520;9.046;2023-01-25T03:39:16;22.50;;;15.55;;
44704;SDS011;30431;48.520;9.046;2023-01-25T03:41:43;25.35;;;17.15;;
44704;SDS011;30431;48.520;9.046;2023-01-25T03:44:13;20.92;;;14.60;;
44704;SDS011;30431;48.520;9.046;2023-01-25T03:46:43;22.20;;;15.77;;
44704;SDS011;30431;48.520;9.046;2023-01-25T03:49:12;24.10;;;15.82;;
44704;SDS011;30431;48.520;9.046;2023-01-25T03:51:39;22.85;;;16.00;;
44704;SDS011;30431;48.520;9.046;2023-01-25T03:54:08;24.88;;;16.58;;
44704;SDS011;30431;48.520;9.046;2023-01-25T03:56:36;25.15;;;15.82;;
44704;SDS011;30431;48.520;9.046;2023-01-25T03:59:14;23.33;;;16.27;;
44704;SDS011;30431;48.520;9.046;2023-01-25T04:01:43;21.67;;;15.20;;
44704;SDS011;30431;48.520;9.046;2023-01-25T04:04:10;24.20;;;16.65;;
44704;SDS011;30431;48.520;9.046;2023-01-25T04:06:40;25.77;;;16.80;;
44704;SDS011;30431;48.520;9.046;2023-01-25T04:09:07;22.42;;;15.75;;
44704;SDS011;30431;48.520;9.046;2023-01-25T04:11:38;23.27;;;16.00;;
44704;SDS011;30431;48.520;9.046;2023-01-25T04:14:06;21.17;;;15.07;;
44704;SDS011;30431;48.520;9.046;2023-01-25T04:16:52;24.42;;;16.52;;
44704;SDS011;30431;48.520;9.046;2023-01-25T04:19:39;22.48;;;15.68;;
44704;SDS011;30431;48.520;9.046;2023-01-25T04:22:12;22.33;;;15.10;;
44704;SDS011;30431;48.520;9.046;2023-01-25T04:24:39;27.65;;;17.30;;
44704;SDS011;30431;48.520;9.046;2023-01-25T04:27:06;23.77;;;16.33;;
44704;SDS011;30431;48.520;9.046;2023-01-25T04:29:42;23.27;;;15.57;;
44704;SDS011;30431;48.520;9.046;2023-01-25T04:32:15;25.38;;;16.00;;
44704;SDS011;30431;48.520;9.046;2023-01-25T04:34:42;24.95;;;16.10;;
44704;SDS011;30431;48.520;9.046;2023-01-25T04:37:13;22.80;;;16.08;;
44704;SDS011;30431;48.520;9.046;2023-01-25T04:39:49;22.98;;;15.15;;
44704;SDS011;30431;48.520;9.046;2023-01-25T04:42:16;23.35;;;16.23;;
44704;SDS011;30431;48.520;9.046;2023-01-25T04:44:47;25.95;;;16.52;;
44704;SDS011;30431;48.520;9.046;2023-01-25T04:47:16;22.42;;;15.48;;
44704;SDS011;30431;48.520;9.046;2023-01-25T04:49:43;25.60;;;16.15;;
44704;SDS011;30431;48.520;9.046;2023-01-25T04:52:13;24.08;;;15.85;;
44704;SDS011;30431;48.520;9.046;2023-01-25T04:54:42;25.58;;;16.27;;
44704;SDS011;30431;48.520;9.046;2023-01-25T04:57:11;24.55;;;15.55;;
44704;SDS011;30431;48.520;9.046;2023-01-25T04:59:42;24.20;;;15.70;;
44704;SDS011;30431;48.520;9.046;2023-01-25T05:02:10;24.35;;;15.60;;
44704;SDS011;30431;48.520;9.046;2023-01-25T05:04:37;23.27;;;15.95;;
44704;SDS011;30431;48.520;9.046;2023-01-25T05:07:04;25.80;;;15.40;;
44704;SDS011;30431;48.520;9.046;2023-01-25T05:09:31;20.90;;;15.05;;
44704;SDS011;30431;48.520;9.046;2023-01-25T05:12:03;21.58;;;15.75;;
44704;SDS011;30431;48.520;9.046;2023-01-25T05:14:49;24.02;;;15.52;;
44704;SDS011;30431;48.520;9.046;2023-01-25T05:17:16;22.48;;;16.02;;
44704;SDS011;30431;48.520;9.046;2023-01-25T05:19:43;25.58;;;15.93;;
44704;SDS011;30431;48.520;9.046;2023-01-25T05:22:14;22.83;;;14.82;;
44704;SDS011;30431;48.520;9.046;2023-01-25T05:24:47;23.88;;;15.48;;
44704;SDS011;30431;48.520;9.046;2023-01-25T05:27:16;21.50;;;14.90;;
44704;SDS011;30431;48.520;9.046;2023-01-25T05:29:54;21.20;;;14.38;;
44704;SDS011;30431;48.520;9.046;2023-01-25T05:32:37;22.65;;;15.55;;
44704;SDS011;30431;48.520;9.046;2023-01-25T05:35:04;22.25;;;15.38;;
44704;SDS011;30431;48.520;9.046;2023-01-25T05:37:32;22.02;;;15.23;;
44704;SDS011;30431;48.520;9.046;2023-01-25T05:40:03;23.15;;;14.95;;
44704;SDS011;30431;48.520;9.046;2023-01-25T05:42:36;22.95;;;15.70;;
44704;SDS011;30431;48.520;9.046;2023-01-25T05:45:08;23.38;;;15.85;;
44704;SDS011;30431;48.520;9.046;2023-01-25T05:47:38;20.17;;;13.93;;
44704;SDS011;30431;48.520;9.046;2023-01-25T05:50:05;19.75;;;13.85;;
44704;SDS011;30431;48.520;9.046;2023-01-25T05:52:51;22.80;;;15.17;;
44704;SDS011;30431;48.520;9.046;2023-01-25T05:55:18;21.20;;;14.18;;
44704;SDS011;30431;48.520;9.046;2023-01-25T05:57:53;20.63;;;14.27;;
44704;SDS011;30431;48.520;9.046;2023-01-25T06:00:24;22.60;;;14.80;;
44704;SDS011;30431;48.520;9.046;2023-01-25T06:02:51;20.17;;;14.02;;
44704;SDS011;30431;48.520;9.046;2023-01-25T06:05:22;19.92;;;13.20;;
44704;SDS011;30431;48.520;9.046;2023-01-25T06:07:49;19.90;;;13.45;;
44704;SDS011;30431;48.520;9.046;2023-01-25T06:10:20;20.77;;;13.73;;
44704;SDS011;30431;48.520;9.046;2023-01-25T06:12:50;19.75;;;13.68;;
44704;SDS011;30431;48.520;9.046;2023-01-25T06:15:22;19.20;;;13.13;;
44704;SDS011;30431;48.520;9.046;2023-01-25T06:17:57;20.70;;;12.55;;
44704;SDS011;30431;48.520;9.046;2023-01-25T06:20:32;19.02;;;13.13;;
44704;SDS011;30431;48.520;9.046;2023-01-25T06:23:05;22.20;;;13.88;;
44704;SDS011;30431;48.520;9.046;2023-01-25T06:25:32;17.63;;;12.52;;
44704;SDS011;30431;48.520;9.046;2023-01-25T06:27:59;18.42;;;12.55;;
44704;SDS011;30431;48.520;9.046;2023-01-25T06:30:29;18.70;;;12.50;;
44704;SDS011;30431;48.520;9.046;2023-01-25T06:32:59;17.45;;;12.10;;
44704;SDS011;30431;48.520;9.046;2023-01-25T06:35:26;22.33;;;13.40;;
44704;SDS011;30431;48.520;9.046;2023-01-25T06:37:55;21.85;;;14.30;;
44704;SDS011;30431;48.520;9.046;2023-01-25T06:40:22;23.58;;;13.65;;
44704;SDS011;30431;48.520;9.046;2023-01-25T06:42:52;22.13;;;14.35;;
44704;SDS011;30431;48.520;9.046;2023-01-25T06:47:47;25.08;;;14.57;;
44704;SDS011;30431;48.520;9.046;2023-01-25T06:50:14;27.08;;;16.27;;
44704;SDS011;30431;48.520;9.046;2023-01-25T06:52:49;26.83;;;15.07;;
44704;SDS011;30431;48.520;9.046;2023-01-25T06:55:20;26.80;;;15.70;;
44704;SDS011;30431;48.520;9.046;2023-01-25T06:57:48;29.15;;;16.58;;
44704;SDS011;30431;48.520;9.046;2023-01-25T07:00:17;48.80;;;29.70;;
44704;SDS011;30431;48.520;9.046;2023-01-25T07:02:44;31.00;;;19.45;;
44704;SDS011;30431;48.520;9.046;2023-01-25T07:05:11;25.25;;;16.98;;
44704;SDS011;30431;48.520;9.046;2023-01-25T07:07:38;25.85;;;16.65;;
44704;SDS011;30431;48.520;9.046;2023-01-25T07:10:05;23.35;;;15.88;;
44704;SDS011;30431;48.520;9.046;2023-01-25T07:12:33;22.35;;;13.90;;
44704;SDS011;30431;48.520;9.046;2023-01-25T07:15:02;22.30;;;15.98;;
44704;SDS011;30431;48.520;9.046;2023-01-25T07:19:59;22.60;;;14.38;;
44704;SDS011;30431;48.520;9.046;2023-01-25T07:22:28;25.63;;;15.68;;
44704;SDS011;30431;48.520;9.046;2023-01-25T07:24:55;21.70;;;15.70;;
44704;SDS011;30431;48.520;9.046;2023-01-25T07:27:24;28.08;;;16.92;;
44704;SDS011;30431;48.520;9.046;2023-01-25T07:29:51;25.35;;;15.43;;
44704;SDS011;30431;48.520;9.046;2023-01-25T07:32:18;24.13;;;15.68;;
44704;SDS011;30431;48.520;9.046;2023-01-25T07:34:45;31.52;;;16.58;;
44704;SDS011;30431;48.520;9.046;2023-01-25T07:37:12;29.88;;;16.00;;
44704;SDS011;30431;48.520;9.046;2023-01-25T07:39:42;24.42;;;14.65;;
44704;SDS011;30431;48.520;9.046;2023-01-25T07:42:15;22.80;;;13.52;;
44704;SDS011;30431;48.520;9.046;2023-01-25T07:45:04;27.42;;;13.93;;
44704;SDS011;30431;48.520;9.046;2023-01-25T07:47:35;23.15;;;12.25;;
44704;SDS011;30431;48.520;9.046;2023-01-25T07:50:04;18.85;;;11.52;;
44704;SDS011;30431;48.520;9.046;2023-01-25T07:55:03;19.17;;;12.38;;
44704;SDS011;30431;48.520;9.046;2023-01-25T07:57:31;23.08;;;13.13;;
44704;SDS011;30431;48.520;9.046;2023-01-25T08:00:00;29.00;;;14.07;;
44704;SDS011;30431;48.520;9.046;2023-01-25T08:02:37;22.33;;;14.00;;
44704;SDS011;30431;48.520;9.046;2023-01-25T08:05:04;20.33;;;13.73;;
44704;SDS011;30431;48.520;9.046;2023-01-25T08:07:32;17.73;;;12.18;;
44704;SDS011;30431;48.520;9.046;2023-01-25T08:09:59;20.60;;;13.80;;
44704;SDS011;30431;48.520;9.046;2023-01-25T08:12:26;21.63;;;12.65;;
44704;SDS011;30431;48.520;9.046;2023-01-25T08:14:54;22.30;;;12.45;;
44704;SDS011;30431;48.520;9.046;2023-01-25T08:17:21;18.15;;;11.63;;
44704;SDS011;30431;48.520;9.046;2023-01-25T08:19:50;20.13;;;12.43;;
44704;SDS011;30431;48.520;9.046;2023-01-25T08:22:17;18.27;;;12.05;;
44704;SDS011;30431;48.520;9.046;2023-01-25T08:24:43;17.10;;;11.35;;
44704;SDS011;30431;48.520;9.046;2023-01-25T08:27:13;16.27;;;10.82;;
44704;SDS011;30431;48.520;9.046;2023-01-25T08:29:40;13.68;;;10.05;;
44704;SDS011;30431;48.520;9.046;2023-01-25T08:32:09;19.90;;;11.00;;
44704;SDS011;30431;48.520;9.046;2023-01-25T08:34:37;14.75;;;10.57;;
44704;SDS011;30431;48.520;9.046;2023-01-25T08:37:06;15.40;;;10.50;;
44704;SDS011;30431;48.520;9.046;2023-01-25T08:39:33;15.35;;;9.68;;
44704;SDS011;30431;48.520;9.046;2023-01-25T08:42:03;14.25;;;9.57;;
44704;SDS011;30431;48.520;9.046;2023-01-25T08:44:29;14.43;;;9.15;;
44704;SDS011;30431;48.520;9.046;2023-01-25T08:46:56;15.73;;;10.00;;
44704;SDS011;30431;48.520;9.046;2023-01-25T08:49:28;29.77;;;19.23;;
44704;SDS011;30431;48.520;9.046;2023-01-25T08:51:58;19.10;;;13.30;;
44704;SDS011;30431;48.520;9.046;2023-01-25T08:54:25;15.55;;;10.57;;
44704;SDS011;30431;48.520;9.046;2023-01-25T08:56:55;16.88;;;9.93;;
44704;SDS011;30431;48.520;9.046;2023-01-25T08:59:26;16.95;;;10.70;;
44704;SDS011;30431;48.520;9.046;2023-01-25T09:01:57;14.80;;;10.05;;
44704;SDS011;30431;48.520;9.046;2023-01-25T09:04:26;13.48;;;10.07;;
44704;SDS011;30431;48.520;9.046;2023-01-25T09:06:54;18.90;;;11.07;;
44704;SDS011;30431;48.520;9.046;2023-01-25T09:09:21;15.38;;;10.48;;
44704;SDS011;30431;48.520;9.046;2023-01-25T09:11:50;17.50;;;10.50;;
44704;SDS011;30431;48.520;9.046;2023-01-25T09:14:17;16.50;;;10.85;;
44704;SDS011;30431;48.520;9.046;2023-01-25T09:16:45;16.73;;;10.32;;
44704;SDS011;30431;48.520;9.046;2023-01-25T09:19:12;15.23;;;10.85;;
44704;SDS011;30431;48.520;9.046;2023-01-25T09:21:41;15.00;;;10.55;;
44704;SDS011;30431;48.520;9.046;2023-01-25T09:24:10;19.85;;;10.25;;
44704;SDS011;30431;48.520;9.046;2023-01-25T09:26:40;16.13;;;10.73;;
44704;SDS011;30431;48.520;9.046;2023-01-25T09:29:13;15.07;;;10.02;;
44704;SDS011;30431;48.520;9.046;2023-01-25T09:31:42;15.35;;;10.40;;
44704;SDS011;30431;48.520;9.046;2023-01-25T09:36:37;16.73;;;10.48;;
44704;SDS011;30431;48.520;9.046;2023-01-25T09:39:04;19.98;;;10.75;;
44704;SDS011;30431;48.520;9.046;2023-01-25T09:46:58;17.48;;;10.80;;
44704;SDS011;30431;48.520;9.046;2023-01-25T09:49:34;17.35;;;10.15;;
44704;SDS011;30431;48.520;9.046;2023-01-25T09:54:42;17.55;;;11.43;;
44704;SDS011;30431;48.520;9.046;2023-01-25T10:00:05;21.15;;;11.85;;
44704;SDS011;30431;48.520;9.046;2023-01-25T10:02:55;18.60;;;11.48;;
44704;SDS011;30431;48.520;9.046;2023-01-25T10:05:40;18.98;;;12.27;;
44704;SDS011;30431;48.520;9.046;2023-01-25T10:11:15;16.52;;;11.07;;
44704;SDS011;30431;48.520;9.046;2023-01-25T10:14:15;17.35;;;11.35;;
44704;SDS011;30431;48.520;9.046;2023-01-25T10:19:17;18.27;;;11.88;;
44704;SDS011;30431;48.520;9.046;2023-01-25T10:21:54;15.52;;;11.25;;
44704;SDS011;30431;48.520;9.046;2023-01-25T10:27:36;18.48;;;12.65;;
44704;SDS011;30431;48.520;9.046;2023-01-25T10:35:29;19.42;;;12.75;;
44704;SDS011;30431;48.520;9.046;2023-01-25T10:38:06;20.80;;;12.88;;
44704;SDS011;30431;48.520;9.046;2023-01-25T10:40:45;17.58;;;12.10;;
44704;SDS011;30431;48.520;9.046;2023-01-25T10:43:37;18.15;;;13.05;;
44704;SDS011;30431;48.520;9.046;2023-01-25T10:48:50;17.85;;;12.55;;
44704;SDS011;30431;48.520;9.046;2023-01-25T10:51:27;19.35;;;12.88;;
44704;SDS011;30431;48.520;9.046;2023-01-25T10:54:03;22.27;;;13.88;;
44704;SDS011;30431;48.520;9.046;2023-01-25T10:56:34;19.35;;;11.82;;
44704;SDS011;30431;48.520;9.046;2023-01-25T10:59:17;20.43;;;12.87;;
44704;SDS011;30431;48.520;9.046;2023-01-25T11:01:45;20.83;;;13.57;;
44704;SDS011;30431;48.520;9.046;2023-01-25T11:04:32;21.60;;;13.25;;
44704;SDS011;30431;48.520;9.046;2023-01-25T11:07:02;20.92;;;13.00;;
44704;SDS011;30431;48.520;9.046;2023-01-25T11:09:32;19.88;;;12.48;;
44704;SDS011;30431;48.520;9.046;2023-01-25T11:12:19;19.80;;;12.95;;
44704;SDS011;30431;48.520;9.046;2023-01-25T11:14:47;19.60;;;12.50;;
44704;SDS011;30431;48.520;9.046;2023-01-25T11:17:27;17.10;;;11.85;;
44704;SDS011;30431;48.520;9.046;2023-01-25T11:22:36;19.50;;;13.18;;
44704;SDS011;30431;48.520;9.046;2023-01-25T11:25:27;20.83;;;13.30;;
44704;SDS011;30431;48.520;9.046;2023-01-25T11:28:09;21.50;;;13.30;;
44704;SDS011;30431;48.520;9.046;2023-01-25T11:33:14;21.20;;;14.15;;
44704;SDS011;30431;48.520;9.046;2023-01-25T11:38:25;22.17;;;14.00;;
44704;SDS011;30431;48.520;9.046;2023-01-25T11:43:54;26.67;;;15.10;;
44704;SDS011;30431;48.520;9.046;2023-01-25T11:51:55;21.80;;;14.60;;
44704;SDS011;30431;48.520;9.046;2023-01-25T12:05:36;24.73;;;16.05;;
44704;SDS011;30431;48.520;9.046;2023-01-25T12:08:36;23.98;;;14.20;;
44704;SDS011;30431;48.520;9.046;2023-01-25T12:14:05;25.27;;;14.50;;
44704;SDS011;30431;48.520;9.046;2023-01-25T12:28:46;23.48;;;14.00;;
44704;SDS011;30431;48.520;9.046;2023-01-25T12:31:20;22.20;;;12.88;;
44704;SDS011;30431;48.520;9.046;2023-01-25T12:33:58;22.25;;;14.02;;
44704;SDS011;30431;48.520;9.046;2023-01-25T12:37:34;24.55;;;13.73;;
44704;SDS011;30431;48.520;9.046;2023-01-25T12:39:38;22.63;;;14.80;;
44704;SDS011;30431;48.520;9.046;2023-01-25T12:42:15;26.10;;;15.68;;
44704;SDS011;30431;48.520;9.046;2023-01-25T12:44:58;29.48;;;14.98;;
44704;SDS011;30431;48.520;9.046;2023-01-25T12:47:37;25.02;;;15.60;;
44704;SDS011;30431;48.520;9.046;2023-01-25T12:50:19;25.35;;;15.20;;
44704;SDS011;30431;48.520;9.046;2023-01-25T12:52:54;27.20;;;16.00;;
44704;SDS011;30431;48.520;9.046;2023-01-25T13:09:07;24.58;;;14.98;;
44704;SDS011;30431;48.520;9.046;2023-01-25T13:11:36;27.73;;;15.98;;
44704;SDS011;30431;48.520;9.046;2023-01-25T13:16:48;25.52;;;16.33;;
44704;SDS011;30431;48.520;9.046;2023-01-25T13:21:59;23.92;;;13.98;;
44704;SDS011;30431;48.520;9.046;2023-01-25T13:25:05;24.23;;;13.57;;
44704;SDS011;30431;48.520;9.046;2023-01-25T13:27:31;21.35;;;12.43;;
44704;SDS011;30431;48.520;9.046;2023-01-25T13:30:22;16.35;;;11.45;;
44704;SDS011;30431;48.520;9.046;2023-01-25T13:33:00;20.50;;;11.07;;
44704;SDS011;30431;48.520;9.046;2023-01-25T13:35:33;19.17;;;11.60;;
44704;SDS011;30431;48.520;9.046;2023-01-25T13:38:04;18.38;;;10.93;;
44704;SDS011;30431;48.520;9.046;2023-01-25T13:43:39;23.85;;;12.65;;
44704;SDS011;30431;48.520;9.046;2023-01-25T13:46:13;20.65;;;11.85;;
44704;SDS011;30431;48.520;9.046;2023-01-25T13:48:50;24.75;;;12.65;;
44704;SDS011;30431;48.520;9.046;2023-01-25T13:51:24;24.83;;;12.70;;
44704;SDS011;30431;48.520;9.046;2023-01-25T13:53:58;20.30;;;11.20;;
44704;SDS011;30431;48.520;9.046;2023-01-25T13:56:32;21.35;;;11.20;;
44704;SDS011;30431;48.520;9.046;2023-01-25T13:59:03;18.23;;;11.38;;
44704;SDS011;30431;48.520;9.046;2023-01-25T14:01:31;16.27;;;10.98;;
44704;SDS011;30431;48.520;9.046;2023-01-25T14:04:01;16.67;;;10.60;;
44704;SDS011;30431;48.520;9.046;2023-01-25T14:06:35;16.40;;;11.45;;
44704;SDS011;30431;48.520;9.046;2023-01-25T14:09:15;20.00;;;10.85;;
44704;SDS011;30431;48.520;9.046;2023-01-25T14:11:53;20.90;;;11.32;;
44704;SDS011;30431;48.520;9.046;2023-01-25T14:14:25;28.45;;;12.77;;
44704;SDS011;30431;48.520;9.046;2023-01-25T14:19:29;21.67;;;12.80;;
44704;SDS011;30431;48.520;9.046;2023-01-25T14:24:45;22.55;;;13.40;;
44704;SDS011;30431;48.520;9.046;2023-01-25T14:27:28;23.17;;;13.77;;
44704;SDS011;30431;48.520;9.046;2023-01-25T14:29:55;24.42;;;13.60;;
44704;SDS011;30431;48.520;9.046;2023-01-25T14:32:23;24.25;;;12.93;;
44704;SDS011;30431;48.520;9.046;2023-01-25T14:34:51;23.02;;;14.38;;
44704;SDS011;30431;48.520;9.046;2023-01-25T14:37:19;25.77;;;14.07;;
44704;SDS011;30431;48.520;9.046;2023-01-25T14:39:48;28.60;;;14.10;;
44704;SDS011;30431;48.520;9.046;2023-01-25T14:42:20;21.48;;;13.73;;
44704;SDS011;30431;48.520;9.046;2023-01-25T14:44:47;20.67;;;12.50;;
44704;SDS011;30431;48.520;9.046;2023-01-25T14:47:18;21.88;;;11.50;;
44704;SDS011;30431;48.520;9.046;2023-01-25T14:49:49;23.23;;;12.63;;
44704;SDS011;30431;48.520;9.046;2023-01-25T14:52:21;23.92;;;11.40;;
44704;SDS011;30431;48.520;9.046;2023-01-25T14:54:53;18.00;;;11.38;;
44704;SDS011;30431;48.520;9.046;2023-01-25T14:57:37;17.50;;;10.27;;
44704;SDS011;30431;48.520;9.046;2023-01-25T15:00:16;16.08;;;10.55;;
44704;SDS011;30431;48.520;9.046;2023-01-25T15:02:50;19.65;;;11.23;;
44704;SDS011;30431;48.520;9.046;2023-01-25T15:05:23;19.52;;;11.40;;
44704;SDS011;30431;48.520;9.046;2023-01-25T15:10:35;22.27;;;10.88;;
44704;SDS011;30431;48.520;9.046;2023-01-25T15:15:50;23.52;;;10.95;;
44704;SDS011;30431;48.520;9.046;2023-01-25T15:23:56;18.63;;;10.98;;
44704;SDS011;30431;48.520;9.046;2023-01-25T15:26:35;17.27;;;11.35;;
44704;SDS011;30431;48.520;9.046;2023-01-25T15:29:16;18.73;;;11.10;;
44704;SDS011;30431;48.520;9.046;2023-01-25T15:31:50;19.48;;;12.07;;
44704;SDS011;30431;48.520;9.046;2023-01-25T15:34:19;19.83;;;11.65;;
44704;SDS011;30431;48.520;9.046;2023-01-25T15:36:50;19.42;;;11.30;;
44704;SDS011;30431;48.520;9.046;2023-01-25T15:39:18;18.63;;;11.85;;
44704;SDS011;30431;48.520;9.046;2023-01-25T15:41:47;19.23;;;11.95;;
44704;SDS011;30431;48.520;9.046;2023-01-25T15:44:17;20.17;;;12.77;;
44704;SDS011;30431;48.520;9.046;2023-01-25T15:46:47;21.48;;;12.48;;
44704;SDS011;30431;48.520;9.046;2023-01-25T15:49:26;21.50;;;12.85;;
44704;SDS011;30431;48.520;9.046;2023-01-25T15:51:56;19.60;;;11.60;;
44704;SDS011;30431;48.520;9.046;2023-01-25T15:54:24;21.42;;;12.30;;
44704;SDS011;30431;48.520;9.046;2023-01-25T15:56:53;20.42;;;11.50;;
44704;SDS011;30431;48.520;9.046;2023-01-25T15:59:23;19.55;;;12.32;;
44704;SDS011;30431;48.520;9.046;2023-01-25T16:01:52;67.35;;;37.05;;
44704;SDS011;30431;48.520;9.046;2023-01-25T16:06:58;19.58;;;11.60;;
44704;SDS011;30431;48.520;9.046;2023-01-25T16:09:27;16.98;;;11.23;;
44704;SDS011;30431;48.520;9.046;2023-01-25T16:14:57;18.63;;;11.88;;
44704;SDS011;30431;48.520;9.046;2023-01-25T16:17:27;17.85;;;11.55;;
44704;SDS011;30431;48.520;9.046;2023-01-25T16:19:59;28.40;;;17.42;;
44704;SDS011;30431;48.520;9.046;2023-01-25T16:22:26;23.90;;;14.32;;
44704;SDS011;30431;48.520;9.046;2023-01-25T16:24:55;19.92;;;11.13;;
44704;SDS011;30431;48.520;9.046;2023-01-25T16:27:27;18.13;;;11.40;;
44704;SDS011;30431;48.520;9.046;2023-01-25T16:30:01;18.45;;;11.63;;
44704;SDS011;30431;48.520;9.046;2023-01-25T16:32:33;17.20;;;11.57;;
44704;SDS011;30431;48.520;9.046;2023-01-25T16:35:00;23.02;;;15.05;;
44704;SDS011;30431;48.520;9.046;2023-01-25T16:41:00;17.25;;;10.98;;
44704;SDS011;30431;48.520;9.046;2023-01-25T16:46:12;19.25;;;12.18;;
44704;SDS011;30431;48.520;9.046;2023-01-25T16:48:47;16.90;;;11.27;;
44704;SDS011;30431;48.520;9.046;2023-01-25T16:51:17;16.30;;;10.80;;
44704;SDS011;30431;48.520;9.046;2023-01-25T16:53:48;20.73;;;10.95;;
44704;SDS011;30431;48.520;9.046;2023-01-25T16:56:17;17.20;;;11.25;;
44704;SDS011;30431;48.520;9.046;2023-01-25T16:58:46;19.33;;;11.70;;
44704;SDS011;30431;48.520;9.046;2023-01-25T17:01:16;17.52;;;10.70;;
44704;SDS011;30431;48.520;9.046;2023-01-25T17:03:47;19.52;;;11.90;;
44704;SDS011;30431;48.520;9.046;2023-01-25T17:06:16;16.52;;;10.95;;
44704;SDS011;30431;48.520;9.046;2023-01-25T17:08:53;18.05;;;11.73;;
44704;SDS011;30431;48.520;9.046;2023-01-25T17:11:21;27.98;;;16.50;;
44704;SDS011;30431;48.520;9.046;2023-01-25T17:13:56;15.63;;;11.35;;
44704;SDS011;30431;48.520;9.046;2023-01-25T17:16:25;18.33;;;10.70;;
44704;SDS011;30431;48.520;9.046;2023-01-25T17:18:53;18.83;;;10.85;;